sensor_id;sensor_type;location;lat;lon;timestamp;pressure;altitude;pressure_sealevel;temperature;humidity
39341;BME280;25059;52.132;21.062;2023-07-28T05:36:16;99343.63;;;19.63;100.00
39341;BME280;25059;52.132;21.062;2023-07-28T05:39:03;99343.91;;;19.70;100.00
39341;BME280;25059;52.132;21.062;2023-07-28T05:41:48;99341.38;;;19.59;100.00
39341;BME280;25059;52.132;21.062;2023-07-28T05:44:34;99339.81;;;19.76;100.00
39341;BME280;25059;52.132;21.062;2023-07-28T05:47:18;99341.94;;;19.72;100.00
39341;BME280;25059;52.132;21.062;2023-07-28T05:50:04;99339.38;;;19.90;100.00
39341;BME280;25059;52.132;21.062;2023-07-28T05:52:49;99341.09;;;19.72;100.00
39341;BME280;25059;52.132;21.062;2023-07-28T05:55:33;99342.34;;;19.77;100.00
39341;BME280;25059;52.132;21.062;2023-07-28T05:58:18;99341.78;;;19.74;100.00
39341;BME280;25059;52.132;21.062;2023-07-28T06:01:02;99332.94;;;19.83;100.00
39341;BME280;25059;52.132;21.062;2023-07-28T06:03:48;99340.94;;;19.83;100.00
39341;BME280;25059;52.132;21.062;2023-07-28T06:06:32;99338.78;;;19.96;100.00
39341;BME280;25059;52.132;21.062;2023-07-28T06:09:17;99344.94;;;20.06;100.00
39341;BME280;25059;52.132;21.062;2023-07-28T06:12:01;99344.38;;;20.12;100.00
39341;BME280;25059;52.132;21.062;2023-07-28T06:14:46;99347.22;;;20.01;100.00
39341;BME280;25059;52.132;21.062;2023-07-28T06:17:30;99347.22;;;20.01;100.00
39341;BME280;25059;52.132;21.062;2023-07-28T06:20:15;99341.94;;;20.28;100.00
39341;BME280;25059;52.132;21.062;2023-07-28T06:22:59;99343.31;;;20.42;100.00
39341;BME280;25059;52.132;21.062;2023-07-28T06:25:44;99342.22;;;20.62;100.00
39341;BME280;25059;52.132;21.062;2023-07-28T06:28:30;99343.47;;;20.68;100.00
39341;BME280;25059;52.132;21.062;2023-07-28T06:31:15;99343.31;;;20.70;100.00
39341;BME280;25059;52.132;21.062;2023-07-28T06:33:59;99344.94;;;20.80;100.00
39341;BME280;25059;52.132;21.062;2023-07-28T06:36:44;99347.47;;;20.54;100.00
39341;BME280;25059;52.132;21.062;2023-07-28T06:39:28;99348.81;;;20.68;100.00
39341;BME280;25059;52.132;21.062;2023-07-28T06:42:14;99350.72;;;20.48;100.00
39341;BME280;25059;52.132;21.062;2023-07-28T06:48:48;99340.50;;;20.34;100.00
39341;BME280;25059;52.132;21.062;2023-07-28T06:51:32;99341.19;;;20.36;100.00
39341;BME280;25059;52.132;21.062;2023-07-28T06:54:18;99329.25;;;20.40;100.00
39341;BME280;25059;52.132;21.062;2023-07-28T06:57:03;99337.94;;;20.52;100.00
39341;BME280;25059;52.132;21.062;2023-07-28T06:59:50;99343.59;;;20.29;100.00
39341;BME280;25059;52.132;21.062;2023-07-28T07:02:35;99336.44;;;20.40;100.00
39341;BME280;25059;52.132;21.062;2023-07-28T07:05:20;99328.47;;;20.20;100.00
39341;BME280;25059;52.132;21.062;2023-07-28T07:08:04;99341.19;;;19.99;100.00
39341;BME280;25059;52.132;21.062;2023-07-28T07:10:49;99345.41;;;19.82;100.00
39341;BME280;25059;52.132;21.062;2023-07-28T07:13:34;99360.28;;;19.08;100.00
39341;BME280;25059;52.132;21.062;2023-07-28T07:16:19;99350.25;;;18.71;100.00
39341;BME280;25059;52.132;21.062;2023-07-28T07:19:03;99348.06;;;18.25;100.00
39341;BME280;25059;52.132;21.062;2023-07-28T07:21:48;99355.94;;;18.26;100.00
39341;BME280;25059;52.132;21.062;2023-07-28T07:24:33;99366.53;;;18.17;100.00
39341;BME280;25059;52.132;21.062;2023-07-28T07:27:17;99371.34;;;17.81;100.00
39341;BME280;25059;52.132;21.062;2023-07-28T07:30:02;99365.56;;;17.76;100.00
39341;BME280;25059;52.132;21.062;2023-07-28T07:32:48;99357.22;;;17.81;100.00
39341;BME280;25059;52.132;21.062;2023-07-28T07:35:36;99370.13;;;17.85;100.00
39341;BME280;25059;52.132;21.062;2023-07-28T07:38:21;99368.81;;;17.80;100.00
39341;BME280;25059;52.132;21.062;2023-07-28T07:41:05;99362.72;;;17.68;100.00
39341;BME280;25059;52.132;21.062;2023-07-28T07:43:53;99360.19;;;18.08;100.00
39341;BME280;25059;52.132;21.062;2023-07-28T07:46:37;99373.66;;;18.16;100.00
39341;BME280;25059;52.132;21.062;2023-07-28T07:49:22;99370.69;;;18.10;100.00
39341;BME280;25059;52.132;21.062;2023-07-28T07:52:08;99361.88;;;18.39;100.00
39341;BME280;25059;52.132;21.062;2023-07-28T07:54:56;99364.81;;;18.67;100.00
39341;BME280;25059;52.132;21.062;2023-07-28T07:57:41;99364.97;;;18.45;100.00
39341;BME280;25059;52.132;21.062;2023-07-28T08:00:26;99365.41;;;18.50;100.00
39341;BME280;25059;52.132;21.062;2023-07-28T08:03:10;99353.00;;;19.19;100.00
39341;BME280;25059;52.132;21.062;2023-07-28T08:05:54;99356.31;;;18.83;100.00
39341;BME280;25059;52.132;21.062;2023-07-28T08:08:39;99346.53;;;19.22;100.00
39341;BME280;25059;52.132;21.062;2023-07-28T08:11:24;99352.03;;;19.40;100.00
39341;BME280;25059;52.132;21.062;2023-07-28T08:14:09;99349.63;;;19.27;100.00
39341;BME280;25059;52.132;21.062;2023-07-28T08:16:53;99352.03;;;19.30;100.00
39341;BME280;25059;52.132;21.062;2023-07-28T08:19:38;99344.47;;;19.74;100.00
39341;BME280;25059;52.132;21.062;2023-07-28T08:22:26;99348.06;;;20.02;100.00
39341;BME280;25059;52.132;21.062;2023-07-28T08:25:11;99343.38;;;20.13;100.00
39341;BME280;25059;52.132;21.062;2023-07-28T08:27:56;99345.75;;;20.16;100.00
39341;BME280;25059;52.132;21.062;2023-07-28T08:30:40;99341.22;;;20.26;100.00
39341;BME280;25059;52.132;21.062;2023-07-28T08:33:25;99333.06;;;20.65;100.00
39341;BME280;25059;52.132;21.062;2023-07-28T08:36:09;99323.19;;;20.75;100.00
39341;BME280;25059;52.132;21.062;2023-07-28T08:38:54;99334.25;;;21.25;100.00
39341;BME280;25059;52.132;21.062;2023-07-28T08:41:38;99331.97;;;21.48;100.00
39341;BME280;25059;52.132;21.062;2023-07-28T08:44:23;99339.38;;;21.54;100.00
39341;BME280;25059;52.132;21.062;2023-07-28T08:47:08;99345.31;;;21.66;100.00
39341;BME280;25059;52.132;21.062;2023-07-28T08:49:52;99351.72;;;21.20;100.00
39341;BME280;25059;52.132;21.062;2023-07-28T08:52:37;99339.16;;;20.85;100.00
39341;BME280;25059;52.132;21.062;2023-07-28T08:55:22;99343.91;;;21.09;100.00
39341;BME280;25059;52.132;21.062;2023-07-28T08:58:18;99330.56;;;21.09;100.00
39341;BME280;25059;52.132;21.062;2023-07-28T09:01:03;99315.91;;;21.13;100.00
39341;BME280;25059;52.132;21.062;2023-07-28T09:03:49;99321.31;;;21.56;100.00
39341;BME280;25059;52.132;21.062;2023-07-28T09:06:33;99313.63;;;21.53;100.00
39341;BME280;25059;52.132;21.062;2023-07-28T09:09:20;99313.31;;;21.82;100.00
39341;BME280;25059;52.132;21.062;2023-07-28T09:12:07;99315.84;;;21.84;100.00
39341;BME280;25059;52.132;21.062;2023-07-28T09:14:56;99310.94;;;22.23;100.00
39341;BME280;25059;52.132;21.062;2023-07-28T09:17:42;99305.41;;;21.99;100.00
39341;BME280;25059;52.132;21.062;2023-07-28T09:20:34;99302.09;;;21.79;100.00
39341;BME280;25059;52.132;21.062;2023-07-28T09:23:28;99319.09;;;21.70;100.00
39341;BME280;25059;52.132;21.062;2023-07-28T09:26:15;99316.31;;;21.36;100.00
39341;BME280;25059;52.132;21.062;2023-07-28T09:29:00;99317.53;;;21.23;100.00
39341;BME280;25059;52.132;21.062;2023-07-28T09:31:46;99307.19;;;21.64;100.00
39341;BME280;25059;52.132;21.062;2023-07-28T09:34:31;99311.47;;;21.21;100.00
39341;BME280;25059;52.132;21.062;2023-07-28T09:37:17;99318.22;;;21.25;100.00
39341;BME280;25059;52.132;21.062;2023-07-28T09:40:03;99314.78;;;21.33;100.00
39341;BME280;25059;52.132;21.062;2023-07-28T09:42:49;99306.75;;;21.77;100.00
39341;BME280;25059;52.132;21.062;2023-07-28T09:45:35;99303.31;;;21.84;100.00
39341;BME280;25059;52.132;21.062;2023-07-28T09:48:21;99307.13;;;21.82;100.00
39341;BME280;25059;52.132;21.062;2023-07-28T09:51:12;99299.34;;;21.45;100.00
39341;BME280;25059;52.132;21.062;2023-07-28T09:54:03;99299.03;;;21.48;100.00
39341;BME280;25059;52.132;21.062;2023-07-28T09:56:48;99300.91;;;21.02;100.00
39341;BME280;25059;52.132;21.062;2023-07-28T09:59:38;99296.88;;;21.16;100.00
39341;BME280;25059;52.132;21.062;2023-07-28T10:02:23;99285.19;;;21.52;100.00
39341;BME280;25059;52.132;21.062;2023-07-28T10:08:44;99281.16;;;22.26;100.00
39341;BME280;25059;52.132;21.062;2023-07-28T10:11:29;99282.06;;;22.43;100.00
39341;BME280;25059;52.132;21.062;2023-07-28T10:17:16;99283.66;;;22.70;100.00
39341;BME280;25059;52.132;21.062;2023-07-28T10:20:03;99285.16;;;22.72;100.00
39341;BME280;25059;52.132;21.062;2023-07-28T10:22:53;99272.56;;;22.56;100.00
39341;BME280;25059;52.132;21.062;2023-07-28T10:25:38;99279.75;;;22.56;100.00
39341;BME280;25059;52.132;21.062;2023-07-28T10:28:39;99276.22;;;22.98;100.00
39341;BME280;25059;52.132;21.062;2023-07-28T10:31:30;99266.31;;;22.98;100.00
39341;BME280;25059;52.132;21.062;2023-07-28T10:34:16;99259.47;;;23.12;100.00
39341;BME280;25059;52.132;21.062;2023-07-28T10:37:02;99264.50;;;23.47;100.00
39341;BME280;25059;52.132;21.062;2023-07-28T10:39:46;99264.19;;;23.59;100.00
39341;BME280;25059;52.132;21.062;2023-07-28T10:42:31;99258.28;;;23.14;100.00
39341;BME280;25059;52.132;21.062;2023-07-28T10:45:15;99262.09;;;22.79;100.00
39341;BME280;25059;52.132;21.062;2023-07-28T10:48:00;99259.25;;;22.31;100.00
39341;BME280;25059;52.132;21.062;2023-07-28T10:50:45;99254.44;;;22.42;100.00
39341;BME280;25059;52.132;21.062;2023-07-28T10:53:31;99250.91;;;23.00;100.00
39341;BME280;25059;52.132;21.062;2023-07-28T10:56:16;99255.63;;;23.14;100.00
39341;BME280;25059;52.132;21.062;2023-07-28T10:59:03;99262.75;;;24.03;100.00
39341;BME280;25059;52.132;21.062;2023-07-28T11:01:48;99247.59;;;24.58;100.00
39341;BME280;25059;52.132;21.062;2023-07-28T11:04:32;99253.63;;;24.60;100.00
39341;BME280;25059;52.132;21.062;2023-07-28T11:07:17;99252.78;;;24.20;100.00
39341;BME280;25059;52.132;21.062;2023-07-28T11:10:01;99245.22;;;23.11;100.00
39341;BME280;25059;52.132;21.062;2023-07-28T11:12:49;99254.94;;;23.04;100.00
39341;BME280;25059;52.132;21.062;2023-07-28T11:15:35;99248.56;;;22.97;100.00
39341;BME280;25059;52.132;21.062;2023-07-28T11:18:19;99255.84;;;22.63;100.00
39341;BME280;25059;52.132;21.062;2023-07-28T11:21:04;99251.22;;;22.89;100.00
39341;BME280;25059;52.132;21.062;2023-07-28T11:23:48;99254.59;;;23.40;100.00
39341;BME280;25059;52.132;21.062;2023-07-28T11:26:34;99253.63;;;24.21;100.00
39341;BME280;25059;52.132;21.062;2023-07-28T11:29:19;99240.31;;;25.20;100.00
39341;BME280;25059;52.132;21.062;2023-07-28T11:32:04;99246.53;;;25.58;100.00
39341;BME280;25059;52.132;21.062;2023-07-28T11:34:49;99248.56;;;25.19;100.00
39341;BME280;25059;52.132;21.062;2023-07-28T11:37:36;99251.28;;;27.59;100.00
39341;BME280;25059;52.132;21.062;2023-07-28T11:40:21;99252.06;;;28.98;96.26
39341;BME280;25059;52.132;21.062;2023-07-28T11:43:07;99240.19;;;28.99;92.02
39341;BME280;25059;52.132;21.062;2023-07-28T11:45:51;99238.78;;;28.55;87.28
39341;BME280;25059;52.132;21.062;2023-07-28T11:48:36;99244.91;;;28.23;91.66
39341;BME280;25059;52.132;21.062;2023-07-28T11:51:20;99231.91;;;28.53;86.19
39341;BME280;25059;52.132;21.062;2023-07-28T11:54:06;99245.44;;;29.73;77.77
39341;BME280;25059;52.132;21.062;2023-07-28T11:56:55;99241.88;;;30.57;75.35
39341;BME280;25059;52.132;21.062;2023-07-28T11:59:40;99240.63;;;32.59;65.18
39341;BME280;25059;52.132;21.062;2023-07-28T12:02:26;99242.72;;;33.47;59.28
39341;BME280;25059;52.132;21.062;2023-07-28T12:05:14;99243.19;;;32.17;60.16
39341;BME280;25059;52.132;21.062;2023-07-28T12:08:03;99241.22;;;32.06;59.93
39341;BME280;25059;52.132;21.062;2023-07-28T12:10:54;99250.19;;;30.75;63.51
39341;BME280;25059;52.132;21.062;2023-07-28T12:13:54;99232.63;;;31.41;62.93
39341;BME280;25059;52.132;21.062;2023-07-28T12:16:41;99236.31;;;32.15;60.68
39341;BME280;25059;52.132;21.062;2023-07-28T12:19:32;99237.38;;;34.74;52.94
39341;BME280;25059;52.132;21.062;2023-07-28T12:22:17;99248.75;;;35.27;49.19
39341;BME280;25059;52.132;21.062;2023-07-28T12:25:01;99247.09;;;31.85;54.06
39341;BME280;25059;52.132;21.062;2023-07-28T12:27:45;99245.34;;;30.26;60.38
39341;BME280;25059;52.132;21.062;2023-07-28T12:30:30;99240.19;;;31.39;60.11
39341;BME280;25059;52.132;21.062;2023-07-28T12:33:15;99238.72;;;31.86;60.92
39341;BME280;25059;52.132;21.062;2023-07-28T12:36:00;99236.44;;;32.26;57.34
39341;BME280;25059;52.132;21.062;2023-07-28T12:38:46;99237.03;;;30.72;61.46
39341;BME280;25059;52.132;21.062;2023-07-28T12:41:33;99250.44;;;29.76;64.54
39341;BME280;25059;52.132;21.062;2023-07-28T12:44:20;99248.75;;;28.48;70.46
39341;BME280;25059;52.132;21.062;2023-07-28T12:47:05;99243.69;;;26.99;85.87
39341;BME280;25059;52.132;21.062;2023-07-28T12:49:49;99253.44;;;26.64;92.82
39341;BME280;25059;52.132;21.062;2023-07-28T12:52:34;99272.53;;;26.03;93.12
39341;BME280;25059;52.132;21.062;2023-07-28T12:55:19;99255.31;;;25.37;96.76
39341;BME280;25059;52.132;21.062;2023-07-28T12:58:03;99255.66;;;25.34;99.44
39341;BME280;25059;52.132;21.062;2023-07-28T13:00:47;99275.44;;;24.96;100.00
39341;BME280;25059;52.132;21.062;2023-07-28T13:03:32;99272.25;;;24.69;100.00
39341;BME280;25059;52.132;21.062;2023-07-28T13:06:17;99257.19;;;24.13;100.00
39341;BME280;25059;52.132;21.062;2023-07-28T13:09:02;99274.19;;;23.97;100.00
39341;BME280;25059;52.132;21.062;2023-07-28T13:11:47;99283.72;;;24.00;100.00
39341;BME280;25059;52.132;21.062;2023-07-28T13:14:32;99280.41;;;23.90;100.00
39341;BME280;25059;52.132;21.062;2023-07-28T13:17:16;99284.28;;;23.38;100.00
39341;BME280;25059;52.132;21.062;2023-07-28T13:20:01;99293.84;;;23.33;100.00
39341;BME280;25059;52.132;21.062;2023-07-28T13:22:46;99278.91;;;23.22;100.00
39341;BME280;25059;52.132;21.062;2023-07-28T13:25:30;99284.44;;;23.45;100.00
39341;BME280;25059;52.132;21.062;2023-07-28T13:28:15;99277.91;;;23.07;100.00
39341;BME280;25059;52.132;21.062;2023-07-28T13:31:01;99282.91;;;22.43;100.00
39341;BME280;25059;52.132;21.062;2023-07-28T13:33:46;99284.59;;;22.10;100.00
39341;BME280;25059;52.132;21.062;2023-07-28T13:36:30;99286.94;;;21.87;100.00
39341;BME280;25059;52.132;21.062;2023-07-28T13:39:15;99293.28;;;21.86;100.00
39341;BME280;25059;52.132;21.062;2023-07-28T13:41:59;99281.88;;;22.02;100.00
39341;BME280;25059;52.132;21.062;2023-07-28T13:44:44;99287.44;;;22.51;100.00
39341;BME280;25059;52.132;21.062;2023-07-28T13:47:28;99285.22;;;22.80;100.00
39341;BME280;25059;52.132;21.062;2023-07-28T13:50:13;99277.41;;;23.76;100.00
39341;BME280;25059;52.132;21.062;2023-07-28T13:52:57;99276.38;;;24.49;100.00
39341;BME280;25059;52.132;21.062;2023-07-28T13:55:42;99269.00;;;26.03;100.00
39341;BME280;25059;52.132;21.062;2023-07-28T13:58:26;99267.09;;;25.36;100.00
39341;BME280;25059;52.132;21.062;2023-07-28T14:01:11;99262.22;;;25.55;100.00
39341;BME280;25059;52.132;21.062;2023-07-28T14:03:55;99270.63;;;25.14;100.00
39341;BME280;25059;52.132;21.062;2023-07-28T14:06:41;99268.13;;;24.82;100.00
39341;BME280;25059;52.132;21.062;2023-07-28T14:09:25;99275.94;;;24.21;100.00
39341;BME280;25059;52.132;21.062;2023-07-28T14:12:10;99274.84;;;23.99;100.00
39341;BME280;25059;52.132;21.062;2023-07-28T14:14:54;99286.00;;;23.56;100.00
39341;BME280;25059;52.132;21.062;2023-07-28T14:17:39;99278.59;;;23.58;100.00
39341;BME280;25059;52.132;21.062;2023-07-28T14:20:23;99280.06;;;23.84;100.00
39341;BME280;25059;52.132;21.062;2023-07-28T14:23:25;99270.81;;;24.51;100.00
39341;BME280;25059;52.132;21.062;2023-07-28T14:26:13;99255.38;;;26.34;100.00
39341;BME280;25059;52.132;21.062;2023-07-28T14:28:59;99259.06;;;26.03;100.00
39341;BME280;25059;52.132;21.062;2023-07-28T14:31:44;99256.44;;;25.43;100.00
39341;BME280;25059;52.132;21.062;2023-07-28T14:34:28;99251.09;;;24.97;100.00
39341;BME280;25059;52.132;21.062;2023-07-28T14:37:12;99257.59;;;24.72;100.00
39341;BME280;25059;52.132;21.062;2023-07-28T14:39:57;99254.47;;;24.29;100.00
39341;BME280;25059;52.132;21.062;2023-07-28T14:42:41;99258.16;;;24.20;100.00
39341;BME280;25059;52.132;21.062;2023-07-28T14:45:26;99250.34;;;23.94;100.00
39341;BME280;25059;52.132;21.062;2023-07-28T14:48:10;99233.94;;;23.81;100.00
39341;BME280;25059;52.132;21.062;2023-07-28T14:50:55;99239.66;;;23.78;100.00
39341;BME280;25059;52.132;21.062;2023-07-28T14:53:40;99253.09;;;23.62;100.00
39341;BME280;25059;52.132;21.062;2023-07-28T14:56:24;99258.81;;;23.34;100.00
39341;BME280;25059;52.132;21.062;2023-07-28T14:59:09;99262.31;;;23.43;100.00
39341;BME280;25059;52.132;21.062;2023-07-28T15:01:54;99251.75;;;23.33;100.00
39341;BME280;25059;52.132;21.062;2023-07-28T15:04:39;99246.72;;;23.30;100.00
39341;BME280;25059;52.132;21.062;2023-07-28T15:07:23;99244.53;;;23.34;100.00
39341;BME280;25059;52.132;21.062;2023-07-28T15:10:08;99259.47;;;23.28;100.00
39341;BME280;25059;52.132;21.062;2023-07-28T15:12:53;99256.13;;;23.18;100.00
39341;BME280;25059;52.132;21.062;2023-07-28T15:15:38;99263.72;;;22.22;100.00
39341;BME280;25059;52.132;21.062;2023-07-28T15:18:23;99267.56;;;21.93;100.00
39341;BME280;25059;52.132;21.062;2023-07-28T15:21:07;99274.69;;;21.59;100.00
39341;BME280;25059;52.132;21.062;2023-07-28T15:23:53;99277.00;;;21.80;100.00
39341;BME280;25059;52.132;21.062;2023-07-28T15:26:38;99276.50;;;21.76;100.00
39341;BME280;25059;52.132;21.062;2023-07-28T15:29:23;99281.91;;;21.84;100.00
39341;BME280;25059;52.132;21.062;2023-07-28T15:32:07;99280.00;;;21.77;100.00
